createdAt,value
2022-12-01T00:02:28.124Z,5.3
2022-12-01T00:04:31.761Z,5.4
2022-12-01T00:06:35.549Z,5.3
2022-12-01T00:08:39.323Z,5.3
2022-12-01T00:10:45.945Z,5.3
2022-12-01T00:14:53.520Z,5.4
2022-12-01T00:15:56.997Z,5.4
2022-12-01T00:18:00.630Z,5.4
2022-12-01T00:20:04.427Z,5.4
2022-12-01T00:22:08.224Z,5.3
2022-12-01T00:24:14.822Z,5.3
2022-12-01T00:26:18.583Z,5.3
2022-12-01T00:28:22.387Z,5.3
2022-12-01T00:30:26.171Z,5.3
2022-12-01T00:32:29.963Z,5.3
2022-12-01T00:34:33.747Z,5.3
2022-12-01T00:36:37.546Z,5.3
2022-12-01T00:38:44.131Z,5.3
2022-12-01T00:40:47.933Z,5.3
2022-12-01T00:46:59.320Z,5.3
2022-12-01T00:49:03.169Z,5.3
2022-12-01T00:51:06.917Z,5.3
2022-12-01T00:53:13.535Z,5.3
2022-12-01T00:55:17.444Z,5.3
2022-12-01T00:57:21.082Z,5.3
2022-12-01T00:59:24.873Z,5.3
2022-12-01T01:01:28.701Z,5.3
2022-12-01T01:03:32.486Z,5.3
2022-12-01T01:05:36.257Z,5.3
2022-12-01T01:07:42.970Z,5.3
2022-12-01T01:09:46.790Z,5.3
2022-12-01T01:11:50.441Z,5.3
2022-12-01T01:14:57.527Z,5.3
2022-12-01T01:21:11.809Z,5.3
2022-12-01T01:27:23.186Z,5.3
2022-12-01T01:29:26.956Z,5.3
2022-12-01T01:31:30.766Z,5.3
2022-12-01T01:33:34.540Z,5.3
2022-12-01T01:37:45.032Z,5.3
2022-12-01T01:39:49.163Z,5.3
2022-12-01T01:41:52.608Z,5.3
2022-12-01T01:43:56.425Z,5.3
2022-12-01T01:46:00.289Z,5.3
2022-12-01T01:50:10.581Z,5.4
2022-12-01T01:52:14.363Z,5.3
2022-12-01T01:54:18.159Z,5.3
2022-12-01T01:56:21.959Z,5.3
2022-12-01T01:58:25.745Z,5.3
2022-12-01T02:00:29.514Z,5.3
2022-12-01T02:02:33.395Z,5.3
2022-12-01T02:04:40.215Z,5.4
2022-12-01T02:06:44.009Z,5.3
2022-12-01T02:08:47.813Z,5.3
2022-12-01T02:09:51.384Z,5.3
2022-12-01T02:11:54.871Z,5.3
2022-12-01T02:13:58.645Z,5.3
2022-12-01T02:16:02.608Z,5.3
2022-12-01T02:18:09.089Z,5.3
2022-12-01T02:20:12.856Z,5.3
2022-12-01T02:22:16.666Z,5.3
2022-12-01T02:24:20.456Z,5.3
2022-12-01T02:26:24.244Z,5.3
2022-12-01T02:32:38.442Z,5.3
2022-12-01T02:34:42.327Z,5.3
2022-12-01T02:36:46.138Z,5.3
2022-12-01T02:38:49.920Z,5.3
2022-12-01T02:40:53.728Z,5.3
2022-12-01T02:42:57.493Z,5.3
2022-12-01T02:45:01.373Z,5.3
2022-12-01T02:47:07.995Z,5.3
2022-12-01T02:49:11.783Z,5.3
2022-12-01T02:51:15.555Z,5.2
2022-12-01T02:53:19.348Z,5.3
2022-12-01T02:55:23.322Z,5.3
2022-12-01T02:57:26.938Z,5.3
2022-12-01T02:59:30.718Z,5.3
2022-12-01T03:03:41.088Z,5.2
2022-12-01T03:05:44.873Z,5.2
2022-12-01T03:08:02.872Z,5.2
2022-12-01T03:10:06.576Z,5.2
2022-12-01T03:12:10.362Z,5.2
2022-12-01T03:14:16.947Z,5.2
2022-12-01T03:16:20.833Z,5.2
2022-12-01T03:18:24.542Z,5.2
2022-12-01T03:20:28.311Z,5.2
2022-12-01T03:22:32.149Z,5.2
2022-12-01T03:24:35.880Z,5.2
2022-12-01T03:26:39.674Z,5.2
2022-12-01T03:30:50.154Z,5.2
2022-12-01T03:34:57.614Z,5.2
2022-12-01T03:37:01.397Z,5.2
2022-12-01T03:39:05.211Z,5.2
2022-12-01T03:41:09.001Z,5.2
2022-12-01T03:43:15.588Z,5.2
2022-12-01T03:45:19.358Z,5.1
2022-12-01T03:47:23.246Z,5.1
2022-12-01T03:49:27.068Z,5.1
2022-12-01T03:51:30.835Z,5.1
2022-12-01T03:53:34.619Z,5.1
2022-12-01T03:55:38.421Z,5.1
2022-12-01T03:57:45.026Z,5.1
2022-12-01T03:59:49.124Z,5.1
2022-12-01T04:01:52.662Z,5.1
2022-12-01T04:04:59.642Z,5.1
2022-12-01T04:21:34.251Z,5.1
2022-12-01T04:23:37.971Z,5.1
2022-12-01T04:25:44.562Z,5.1
2022-12-01T04:27:48.369Z,5.1
2022-12-01T04:29:52.412Z,5.1
2022-12-01T04:31:55.916Z,5.1
2022-12-01T04:33:59.704Z,5.1
2022-12-01T04:38:07.236Z,5.1
2022-12-01T04:40:13.857Z,5.1
2022-12-01T04:42:17.581Z,5.1
2022-12-01T04:44:21.484Z,5.1
2022-12-01T04:46:25.439Z,5.1
2022-12-01T04:48:29.111Z,5.1
2022-12-01T04:50:32.900Z,5.1
2022-12-01T04:52:36.672Z,5.1
2022-12-01T04:54:43.277Z,5.1
2022-12-01T04:56:47.053Z,5.1
2022-12-01T04:58:50.814Z,5.1
2022-12-01T04:59:54.114Z,5.1
2022-12-01T05:01:58.027Z,5.1
2022-12-01T05:04:01.684Z,5.1
2022-12-01T05:06:05.457Z,5.1
2022-12-01T05:08:12.049Z,5.1
2022-12-01T05:10:15.845Z,5.1
2022-12-01T05:12:19.644Z,5.1
2022-12-01T05:14:23.465Z,5.1
2022-12-01T05:16:27.269Z,5.1
2022-12-01T05:18:31.022Z,5.1
2022-12-01T05:24:45.160Z,5.1
2022-12-01T05:26:48.926Z,5.1
2022-12-01T05:30:56.518Z,5
2022-12-01T05:33:00.312Z,5.1
2022-12-01T05:35:04.095Z,5.1
2022-12-01T05:37:10.692Z,5.1
2022-12-01T05:43:26.911Z,5.1
2022-12-01T05:45:25.881Z,5.1
2022-12-01T05:47:29.673Z,5
2022-12-01T05:49:33.377Z,5.1
2022-12-01T05:51:39.968Z,5.1
2022-12-01T05:56:50.848Z,5.1
2022-12-01T05:58:54.614Z,5.1
2022-12-01T06:00:58.406Z,5.1
2022-12-01T06:03:02.176Z,5
2022-12-01T06:05:08.796Z,5
2022-12-01T06:07:12.587Z,5
2022-12-01T06:09:16.329Z,5
2022-12-01T06:15:27.701Z,5
2022-12-01T06:17:34.639Z,5.1
2022-12-01T06:21:41.871Z,5.1
2022-12-01T06:25:49.437Z,5.1
2022-12-01T06:27:53.200Z,5.1
2022-12-01T06:32:00.788Z,5.1
2022-12-01T06:36:11.144Z,5.1
2022-12-01T06:44:26.344Z,5.2
2022-12-01T06:46:30.204Z,5.2
2022-12-01T06:48:36.854Z,5.2
2022-12-01T06:50:40.604Z,5.2
2022-12-01T06:52:44.384Z,5.2
2022-12-01T06:55:14.237Z,5.2
2022-12-01T06:57:17.719Z,5.2
2022-12-01T06:59:21.505Z,5.2
2022-12-01T07:01:28.166Z,5.2
2022-12-01T07:03:31.894Z,5.2
2022-12-01T07:07:39.536Z,5.2
2022-12-01T07:09:43.229Z,5.2
2022-12-01T07:11:47.027Z,5.2
2022-12-01T07:13:50.791Z,5.2
2022-12-01T07:15:57.398Z,5.2
2022-12-01T07:18:01.196Z,5.2
2022-12-01T07:20:04.962Z,5.2
2022-12-01T07:22:08.725Z,5.1
2022-12-01T07:24:12.536Z,5.2
2022-12-01T07:26:16.298Z,5.2
2022-12-01T07:28:20.118Z,5.2
2022-12-01T07:30:28.533Z,5.2
2022-12-01T07:32:30.433Z,5.2
2022-12-01T07:34:34.206Z,5.2
2022-12-01T07:36:38.029Z,5.2
2022-12-01T07:38:41.803Z,5.2
2022-12-01T07:42:49.375Z,5.2
2022-12-01T07:44:55.935Z,5.2
2022-12-01T07:46:59.723Z,5.2
2022-12-01T07:49:03.516Z,5.3
2022-12-01T07:50:06.786Z,5.4
2022-12-01T07:52:10.570Z,5.4
2022-12-01T07:54:14.393Z,5.5
2022-12-01T07:56:18.170Z,5.5
2022-12-01T07:58:24.755Z,5.6
2022-12-01T08:00:28.551Z,5.5
2022-12-01T08:02:32.357Z,5.4
2022-12-01T08:04:36.074Z,5.5
2022-12-01T08:06:39.870Z,5.5
2022-12-01T08:08:43.638Z,5.4
2022-12-01T08:12:54.025Z,5.5
2022-12-01T08:14:57.806Z,5.5
2022-12-01T08:17:01.576Z,5.7
2022-12-01T08:19:05.393Z,5.6
2022-12-01T08:21:09.153Z,5.6
2022-12-01T08:23:12.931Z,5.6
2022-12-01T08:27:23.345Z,5.6
2022-12-01T08:31:30.956Z,5.7
2022-12-01T08:33:34.698Z,5.6
2022-12-01T08:35:38.476Z,5.6
2022-12-01T08:37:42.262Z,5.5
2022-12-01T08:39:46.112Z,5.5
2022-12-01T08:41:52.682Z,5.6
2022-12-01T08:43:58.429Z,5.6
2022-12-01T08:46:00.407Z,5.6
2022-12-01T08:47:03.540Z,5.6
2022-12-01T08:51:11.161Z,5.7
2022-12-01T08:55:21.524Z,5.7
2022-12-01T09:01:33.201Z,5.7
2022-12-01T09:03:36.682Z,5.7
2022-12-01T09:05:40.486Z,5.8
2022-12-01T09:07:44.388Z,5.7
2022-12-01T09:09:51.368Z,5.7
2022-12-01T09:11:54.815Z,5.8
2022-12-01T09:13:58.594Z,5.8
2022-12-01T09:16:02.435Z,5.8
2022-12-01T09:18:06.152Z,5.9
2022-12-01T09:20:09.976Z,5.9
2022-12-01T09:22:13.786Z,5.9
2022-12-01T09:24:20.383Z,5.9
2022-12-01T09:30:31.799Z,5.8
2022-12-01T09:32:35.585Z,5.8
2022-12-01T09:34:39.370Z,5.8
2022-12-01T09:36:43.178Z,5.8
2022-12-01T09:38:49.804Z,5.7
2022-12-01T09:40:53.642Z,5.7
2022-12-01T09:42:57.437Z,5.7
2022-12-01T09:44:00.740Z,5.7
2022-12-01T09:46:04.544Z,5.7
2022-12-01T09:48:08.354Z,5.7
2022-12-01T09:50:12.282Z,5.7
2022-12-01T09:52:18.891Z,5.8
2022-12-01T09:54:22.720Z,5.7
2022-12-01T09:56:26.584Z,5.5
2022-12-01T09:58:30.394Z,5.5
2022-12-01T10:00:34.320Z,5.4
2022-12-01T10:02:38.176Z,5.5
2022-12-01T10:04:41.840Z,5.5
2022-12-01T10:06:48.453Z,5.6
2022-12-01T10:08:52.262Z,5.6
2022-12-01T10:10:56.079Z,5.7
2022-12-01T10:15:03.704Z,5.7
2022-12-01T10:17:07.475Z,5.7
2022-12-01T10:19:11.737Z,5.7
2022-12-01T10:21:18.348Z,5.6
2022-12-01T10:23:22.142Z,5.6
2022-12-01T10:25:25.939Z,5.6
2022-12-01T10:27:29.846Z,5.6
2022-12-01T10:29:33.653Z,5.5
2022-12-01T10:31:37.503Z,5.5
2022-12-01T10:33:41.289Z,5.6
2022-12-01T10:35:47.886Z,5.8
2022-12-01T10:37:51.719Z,5.8
2022-12-01T10:39:55.465Z,5.8
2022-12-01T10:42:23.116Z,6
2022-12-01T10:44:26.938Z,6
2022-12-01T10:48:37.355Z,6
2022-12-01T10:50:41.172Z,6
2022-12-01T10:52:44.996Z,6.3
2022-12-01T10:54:48.823Z,6.3
2022-12-01T10:56:52.625Z,6.4
2022-12-01T10:58:56.440Z,6.3
2022-12-01T11:01:00.829Z,6.2
2022-12-01T11:05:10.697Z,6.5
2022-12-01T11:11:22.116Z,6.3
2022-12-01T11:17:36.417Z,6.4
2022-12-01T11:19:40.363Z,6.4
2022-12-01T11:21:44.030Z,6.4
2022-12-01T11:25:51.675Z,6.3
2022-12-01T11:27:55.512Z,6.5
2022-12-01T11:29:59.333Z,6.5
2022-12-01T11:32:06.083Z,6.7
2022-12-01T11:34:09.782Z,6.6
2022-12-01T11:36:16.271Z,6.5
2022-12-01T11:39:20.782Z,6.6
2022-12-01T11:45:35.138Z,6.8
2022-12-01T11:49:47.173Z,6.6
2022-12-01T11:51:46.553Z,6.6
2022-12-01T11:53:50.362Z,6.8
2022-12-01T11:55:54.543Z,7
2022-12-01T11:57:58.057Z,7.1
2022-12-01T12:00:04.686Z,7.4
2022-12-01T12:02:08.528Z,7.3
2022-12-01T12:04:12.353Z,7.5
2022-12-01T12:06:39.591Z,7.4
2022-12-01T12:08:20.019Z,7.3
2022-12-01T12:10:23.875Z,7.3
2022-12-01T12:12:27.685Z,7.1
2022-12-01T12:14:34.333Z,7
2022-12-01T12:18:42.027Z,6.8
2022-12-01T12:22:53.781Z,7.2
2022-12-01T12:24:53.518Z,7.2
2022-12-01T12:26:57.406Z,7
2022-12-01T12:29:07.069Z,7.3
2022-12-01T12:34:15.040Z,7.5
2022-12-01T12:36:18.894Z,7.4
2022-12-01T12:38:22.748Z,7.2
2022-12-01T12:40:26.578Z,7
2022-12-01T12:42:33.227Z,7.2
2022-12-01T12:44:37.758Z,7.1
2022-12-01T12:46:41.037Z,7
2022-12-01T12:49:11.618Z,7
2022-12-01T12:50:48.618Z,6.9
2022-12-01T12:52:52.421Z,6.9
2022-12-01T12:54:56.277Z,6.9
2022-12-01T12:57:02.937Z,6.9
2022-12-01T12:59:06.798Z,6.9
2022-12-01T13:01:10.648Z,6.8
2022-12-01T13:03:14.442Z,6.7
2022-12-01T13:05:18.286Z,6.7
2022-12-01T13:07:22.202Z,6.9
2022-12-01T13:09:25.971Z,7
2022-12-01T13:11:32.579Z,6.9
2022-12-01T13:13:36.427Z,6.9
2022-12-01T13:15:40.274Z,7
2022-12-01T13:17:44.097Z,7.1
2022-12-01T13:19:48.270Z,7.1
2022-12-01T13:21:51.795Z,7.1
2022-12-01T13:23:55.594Z,7
2022-12-01T13:28:06.088Z,6.9
2022-12-01T13:30:10.038Z,6.8
2022-12-01T13:31:13.304Z,6.9
2022-12-01T13:35:20.870Z,6.9
2022-12-01T13:37:24.722Z,6.9
2022-12-01T13:39:31.367Z,7
2022-12-01T13:41:35.215Z,6.9
2022-12-01T13:43:39.012Z,6.8
2022-12-01T13:45:42.845Z,6.8
2022-12-01T13:47:46.692Z,6.8
2022-12-01T13:49:51.018Z,6.7
2022-12-01T13:51:54.359Z,6.7
2022-12-01T13:54:00.975Z,6.7
2022-12-01T13:56:04.815Z,6.7
2022-12-01T13:58:08.653Z,6.6
2022-12-01T14:00:12.533Z,6.7
2022-12-01T14:02:16.380Z,6.7
2022-12-01T14:04:20.140Z,6.6
2022-12-01T14:06:23.994Z,6.7
2022-12-01T14:12:38.277Z,6.5
2022-12-01T14:16:46.813Z,6.5
2022-12-01T14:23:01.066Z,6.5
2022-12-01T14:25:04.901Z,6.5
2022-12-01T14:27:08.744Z,6.4
2022-12-01T14:29:38.328Z,6.3
2022-12-01T14:31:42.218Z,6.3
2022-12-01T14:33:39.899Z,6.3
2022-12-01T14:35:46.434Z,6.3
2022-12-01T14:37:50.259Z,6.3
2022-12-01T14:39:54.064Z,6.3
2022-12-01T14:41:57.910Z,6.2
2022-12-01T14:44:01.744Z,6.3
2022-12-01T14:46:05.556Z,6.3
2022-12-01T14:48:09.391Z,6.3
2022-12-01T14:50:16.022Z,6.3
2022-12-01T14:52:19.829Z,6.3
2022-12-01T14:54:23.649Z,6.2
2022-12-01T14:56:27.459Z,6.2
2022-12-01T14:58:31.290Z,6.2
2022-12-01T15:00:35.129Z,6.2
2022-12-01T15:02:38.960Z,6.3
2022-12-01T15:04:45.543Z,6.2
2022-12-01T15:06:49.364Z,6.2
2022-12-01T15:09:10.517Z,6.2
2022-12-01T15:10:56.991Z,6.2
2022-12-01T15:13:00.824Z,6.3
2022-12-01T15:17:08.606Z,6.2
2022-12-01T15:19:15.097Z,6.2
2022-12-01T15:21:18.894Z,6.2
2022-12-01T15:24:26.059Z,6.1
2022-12-01T15:26:29.869Z,6.1
2022-12-01T15:28:33.671Z,6.1
2022-12-01T15:30:37.484Z,6.1
2022-12-01T15:32:44.133Z,6.1
2022-12-01T15:34:48.252Z,6.1
2022-12-01T15:36:51.746Z,6.1
2022-12-01T15:38:55.551Z,6.1
2022-12-01T15:41:27.850Z,6.1
2022-12-01T15:43:03.268Z,6.1
2022-12-01T15:45:07.109Z,6
2022-12-01T15:47:13.729Z,6
2022-12-01T15:49:17.523Z,6.1
2022-12-01T15:53:25.162Z,6.1
2022-12-01T15:55:28.988Z,6.1
2022-12-01T15:57:32.784Z,6.1
2022-12-01T15:59:36.608Z,6.1
2022-12-01T16:01:43.337Z,6.1
2022-12-01T16:03:47.037Z,6.1
2022-12-01T16:05:50.873Z,6.1
2022-12-01T16:08:12.695Z,6
2022-12-01T16:09:58.490Z,6
2022-12-01T16:12:02.300Z,6
2022-12-01T16:14:06.119Z,6
2022-12-01T16:18:17.016Z,5.9
2022-12-01T16:20:20.831Z,5.9
2022-12-01T16:21:24.136Z,5.9
2022-12-01T16:23:27.985Z,6
2022-12-01T16:27:35.604Z,6
2022-12-01T16:29:42.214Z,5.9
2022-12-01T16:32:12.432Z,5.9
2022-12-01T16:33:49.841Z,5.9
2022-12-01T16:37:57.509Z,5.9
2022-12-01T16:40:01.400Z,5.9
2022-12-01T16:42:05.159Z,5.9
2022-12-01T16:44:27.537Z,5.9
2022-12-01T16:46:15.608Z,5.9
2022-12-01T16:48:19.394Z,5.9
2022-12-01T16:50:23.161Z,5.9
2022-12-01T16:52:45.659Z,5.9
2022-12-01T16:54:30.815Z,5.8
2022-12-01T16:56:34.639Z,5.8
2022-12-01T16:58:41.233Z,5.7
2022-12-01T17:00:45.071Z,5.7
2022-12-01T17:02:48.986Z,5.7
2022-12-01T17:04:53.030Z,5.7
2022-12-01T17:06:56.501Z,5.7
2022-12-01T17:09:00.323Z,5.7
2022-12-01T17:11:04.116Z,5.7
2022-12-01T17:13:10.761Z,5.7
2022-12-01T17:15:14.563Z,5.7
2022-12-01T17:17:18.375Z,5.7
2022-12-01T17:18:21.679Z,5.7
2022-12-01T17:22:29.318Z,5.7
2022-12-01T17:24:33.126Z,5.7
2022-12-01T17:26:39.735Z,5.8
2022-12-01T17:30:47.409Z,5.9
2022-12-01T17:32:51.162Z,5.9
2022-12-01T17:34:54.945Z,5.8
2022-12-01T17:36:58.755Z,5.8
2022-12-01T17:39:02.550Z,5.7
2022-12-01T17:45:16.766Z,5.7
2022-12-01T17:47:20.564Z,5.8
2022-12-01T17:49:24.360Z,5.7
2022-12-01T17:51:28.163Z,5.7
2022-12-01T17:53:31.968Z,5.7
2022-12-01T17:55:38.575Z,5.8
2022-12-01T17:57:42.346Z,5.7
2022-12-01T17:59:46.161Z,5.8
2022-12-01T18:01:50.022Z,5.8
2022-12-01T18:03:53.733Z,5.8
2022-12-01T18:05:57.559Z,5.7
2022-12-01T18:08:01.443Z,5.7
2022-12-01T18:10:08.066Z,5.8
2022-12-01T18:12:11.892Z,5.8
2022-12-01T18:14:15.684Z,5.8
2022-12-01T18:16:45.255Z,5.7
2022-12-01T18:18:49.054Z,5.7
2022-12-01T18:20:52.885Z,5.7
2022-12-01T18:22:59.489Z,5.7
2022-12-01T18:25:03.281Z,5.7
2022-12-01T18:27:07.071Z,5.8
2022-12-01T18:29:10.875Z,5.8
2022-12-01T18:31:14.835Z,5.8
2022-12-01T18:33:18.521Z,5.8
2022-12-01T18:35:23.101Z,5.8
2022-12-01T18:37:28.914Z,5.9
2022-12-01T18:39:32.795Z,5.9
2022-12-01T18:41:36.529Z,5.9
2022-12-01T18:43:40.329Z,5.9
2022-12-01T18:45:44.134Z,5.9
2022-12-01T18:47:47.930Z,5.8
2022-12-01T18:49:51.758Z,5.7
2022-12-01T18:51:58.368Z,5.7
2022-12-01T18:54:02.196Z,5.7
2022-12-01T18:56:05.990Z,5.7
2022-12-01T19:00:13.632Z,5.7
2022-12-01T19:02:17.545Z,5.7
2022-12-01T19:04:21.251Z,5.6
2022-12-01T19:06:27.949Z,5.6
2022-12-01T19:08:31.795Z,5.6
2022-12-01T19:10:35.596Z,5.6
2022-12-01T19:15:46.512Z,5.6
2022-12-01T19:17:50.316Z,5.6
2022-12-01T19:19:56.958Z,5.5
2022-12-01T19:26:08.360Z,5.5
2022-12-01T19:30:15.956Z,5.6
2022-12-01T19:32:19.756Z,5.6
2022-12-01T19:34:26.390Z,5.6
2022-12-01T19:36:30.182Z,5.6
2022-12-01T19:38:33.999Z,5.4
2022-12-01T19:40:37.848Z,5.4
2022-12-01T19:42:41.596Z,5.5
2022-12-01T19:44:45.380Z,5.5
2022-12-01T19:46:49.226Z,5.5
2022-12-01T19:48:55.789Z,5.5
2022-12-01T19:50:59.596Z,5.4
2022-12-01T19:55:07.279Z,5.4
2022-12-01T19:57:11.114Z,5.5
2022-12-01T19:59:15.092Z,5.4
2022-12-01T20:01:18.734Z,5.5
2022-12-01T20:03:25.279Z,5.4
2022-12-01T20:05:29.066Z,5.4
2022-12-01T20:08:36.311Z,5.4
2022-12-01T20:10:39.969Z,5.4
2022-12-01T20:12:43.796Z,5.3
2022-12-01T20:14:47.760Z,5.3
2022-12-01T20:16:54.268Z,5.3
2022-12-01T20:18:57.987Z,5.3
2022-12-01T20:23:05.530Z,5.3
2022-12-01T20:25:09.331Z,5.2
2022-12-01T20:27:13.115Z,5.2
2022-12-01T20:29:16.934Z,5.2
2022-12-01T20:37:34.925Z,5.2
2022-12-01T20:43:46.257Z,5.1
2022-12-01T20:45:52.912Z,5.2
2022-12-01T20:47:56.687Z,5.2
2022-12-01T20:50:00.473Z,5.1
2022-12-01T20:52:04.223Z,5.1
2022-12-01T20:54:27.841Z,5.1
2022-12-01T20:56:11.905Z,5
2022-12-01T20:58:15.710Z,5.1
2022-12-01T21:00:22.299Z,5.1
2022-12-01T21:02:26.133Z,5.1
2022-12-01T21:04:29.846Z,5
2022-12-01T21:07:37.030Z,5
2022-12-01T21:09:40.761Z,5
2022-12-01T21:11:44.532Z,5
2022-12-01T21:13:51.118Z,5
2022-12-01T21:16:00.133Z,5
2022-12-01T21:17:58.690Z,5
2022-12-01T21:20:02.790Z,5
2022-12-01T21:22:06.579Z,4.9
2022-12-01T21:24:10.343Z,4.9
2022-12-01T21:26:14.253Z,4.8
2022-12-01T21:32:28.494Z,4.8
2022-12-01T21:34:32.258Z,4.7
2022-12-01T21:42:50.298Z,4.7
2022-12-01T21:44:54.110Z,4.7
2022-12-01T21:46:57.881Z,4.7
2022-12-01T21:49:01.676Z,4.6
2022-12-01T21:59:23.375Z,4.6
2022-12-01T22:01:27.293Z,4.6
2022-12-01T22:04:01.791Z,4.6
2022-12-01T22:06:28.400Z,4.6
2022-12-01T22:08:04.327Z,4.6
2022-12-01T22:10:12.405Z,4.6
2022-12-01T22:12:16.107Z,4.6
2022-12-01T22:14:19.890Z,4.6
2022-12-01T22:16:23.776Z,4.5
2022-12-01T22:18:27.554Z,4.5
2022-12-01T22:20:31.425Z,4.5
2022-12-01T22:22:35.302Z,4.5
2022-12-01T22:24:42.091Z,4.5
2022-12-01T22:26:45.874Z,4.5
2022-12-01T22:28:49.753Z,4.5
2022-12-01T22:30:53.671Z,4.5
2022-12-01T22:32:57.495Z,4.5
2022-12-01T22:35:01.282Z,4.4
2022-12-01T22:37:05.059Z,4.4
2022-12-01T22:39:11.656Z,4.4
2022-12-01T22:41:15.420Z,4.4
2022-12-01T22:43:19.186Z,4.3
2022-12-01T22:45:23.078Z,4.4
2022-12-01T22:47:26.928Z,4.4
2022-12-01T22:49:30.816Z,4.4
2022-12-01T22:51:34.666Z,4.3
2022-12-01T22:53:41.466Z,4.3
2022-12-01T22:55:45.339Z,4.3
2022-12-01T22:57:49.202Z,4.3
2022-12-01T22:58:52.472Z,4.4
2022-12-01T23:00:58.043Z,4.4
2022-12-01T23:03:00.183Z,4.3
2022-12-01T23:05:03.906Z,4.3
2022-12-01T23:11:18.294Z,4.3
2022-12-01T23:13:22.155Z,4.3
2022-12-01T23:17:29.900Z,4.3
2022-12-01T23:19:33.672Z,4.3
2022-12-01T23:21:40.344Z,4.3
2022-12-01T23:23:44.105Z,4.3
2022-12-01T23:25:47.992Z,4.4
2022-12-01T23:27:51.742Z,4.4
2022-12-01T23:29:55.523Z,4.3
2022-12-01T23:31:59.269Z,4.3
2022-12-01T23:34:03.033Z,4.3
2022-12-01T23:36:09.733Z,4.3
2022-12-01T23:38:13.611Z,4.3
2022-12-01T23:40:17.469Z,4.3
2022-12-01T23:42:21.217Z,4.3
2022-12-01T23:44:24.972Z,4.3
2022-12-01T23:46:28.834Z,4.3
2022-12-01T23:48:32.519Z,4.3
2022-12-01T23:50:39.189Z,4.2
2022-12-01T23:52:42.959Z,4.2
2022-12-01T23:54:46.718Z,4.2
2022-12-01T23:55:50.012Z,4.2
2022-12-01T23:59:57.635Z,4.2
